Time;durP1;ratioP1;P1;durP2;ratioP2;P2;SDS_P1;SDS_P2;PMS_P1;PMS_P2;Temp;Humidity;BMP_temperature;BMP_pressure;BME280_temperature;BME280_humidity;BME280_pressure;Samples;Min_cycle;Max_cycle;Signal;HPM_P1;HPM_P2
2022/06/13 00:02:08;;;;;;;11.20;4.82;;;14.90;99.90;;;;;;5021890;28;20033;-79
2022/06/13 00:04:35;;;;;;;12.40;4.75;;;14.70;99.90;;;;;;5030957;28;20604;-79
2022/06/13 00:07:01;;;;;;;15.60;4.70;;;14.90;99.90;;;;;;5029631;28;20061;-79
2022/06/13 00:09:27;;;;;;;10.30;4.97;;;14.70;99.90;;;;;;5009214;28;20092;-79
2022/06/13 00:11:53;;;;;;;15.52;5.10;;;15.20;99.90;;;;;;5024142;28;20033;-79
2022/06/13 00:14:19;;;;;;;11.35;4.90;;;14.70;99.90;;;;;;4994878;28;20045;-79
2022/06/13 00:16:45;;;;;;;9.35;4.80;;;14.80;99.90;;;;;;5014565;28;20512;-79
2022/06/13 00:19:10;;;;;;;15.73;5.13;;;14.80;99.90;;;;;;5012364;28;20037;-79
2022/06/13 00:21:37;;;;;;;12.45;5.20;;;14.80;99.90;;;;;;5023938;28;20037;-79
2022/06/13 00:24:07;;;;;;;11.63;5.03;;;15.00;99.90;;;;;;5008672;28;20115;-78
2022/06/13 00:26:35;;;;;;;14.10;5.30;;;14.80;99.90;;;;;;5022043;28;20084;-78
2022/06/13 00:29:01;;;;;;;10.48;4.93;;;14.80;99.90;;;;;;5016451;28;20049;-79
2022/06/13 00:31:27;;;;;;;13.50;5.50;;;14.80;99.90;;;;;;5003324;28;20391;-79
2022/06/13 00:33:54;;;;;;;13.75;5.18;;;14.80;99.90;;;;;;4989770;28;20124;-79
2022/06/13 00:36:23;;;;;;;11.75;5.70;;;14.80;99.90;;;;;;4993011;28;20038;-79
2022/06/13 00:38:50;;;;;;;11.88;5.43;;;14.80;99.90;;;;;;5012940;28;20163;-78
2022/06/13 00:41:23;;;;;;;13.20;5.22;;;14.80;99.90;;;;;;5011428;28;20034;-79
2022/06/13 00:43:49;;;;;;;11.77;5.15;;;14.90;99.90;;;;;;5020205;28;20067;-79
2022/06/13 00:46:25;;;;;;;11.73;5.45;;;14.80;99.90;;;;;;5030914;28;20033;-79
2022/06/13 00:48:56;;;;;;;13.05;5.03;;;14.80;99.90;;;;;;5010567;28;20037;-79
2022/06/13 00:51:23;;;;;;;16.10;5.60;;;14.80;99.90;;;;;;5023991;28;20418;-79
2022/06/13 00:53:50;;;;;;;17.20;5.90;;;14.80;99.90;;;;;;4979517;28;20124;-79
2022/06/13 00:56:21;;;;;;;16.95;5.80;;;14.80;99.90;;;;;;5010750;28;20042;-79
2022/06/13 00:58:55;;;;;;;13.63;5.72;;;14.80;99.90;;;;;;5012055;28;20501;-79
2022/06/13 01:01:23;;;;;;;14.30;5.60;;;14.80;99.90;;;;;;4986276;28;20418;-79
2022/06/13 01:03:50;;;;;;;9.80;5.47;;;14.80;99.90;;;;;;4986209;28;20041;-79
2022/06/13 01:06:17;;;;;;;17.95;6.30;;;15.10;99.90;;;;;;5010702;28;20041;-79
2022/06/13 01:08:43;;;;;;;13.48;5.63;;;14.90;99.90;;;;;;5030177;28;20045;-79
2022/06/13 01:11:17;;;;;;;12.38;5.90;;;14.80;99.90;;;;;;5005961;28;20042;-79
2022/06/13 01:14:11;;;;;;;12.85;6.25;;;14.80;99.90;;;;;;5012398;28;20042;-79
2022/06/13 01:16:59;;;;;;;12.50;5.47;;;14.90;99.90;;;;;;5007036;28;20083;-79
2022/06/13 01:19:33;;;;;;;12.15;5.97;;;14.80;99.90;;;;;;4989941;28;20577;-78
2022/06/13 01:22:25;;;;;;;11.75;6.10;;;14.80;99.90;;;;;;5009115;28;20497;-78
2022/06/13 01:25:16;;;;;;;18.13;6.03;;;14.80;99.90;;;;;;5005140;28;20041;-79
2022/06/13 01:27:51;;;;;;;10.90;6.32;;;14.80;99.90;;;;;;5004038;28;20114;-79
2022/06/13 01:30:44;;;;;;;16.15;6.15;;;14.80;99.90;;;;;;5010733;28;20494;-78
2022/06/13 01:33:36;;;;;;;12.10;5.80;;;14.80;99.90;;;;;;5009770;28;20038;-79
2022/06/13 01:36:05;;;;;;;14.33;6.20;;;14.70;99.90;;;;;;5030761;28;20084;-79
2022/06/13 01:39:01;;;;;;;16.25;6.70;;;14.70;99.90;;;;;;4991428;28;20064;-79
2022/06/13 01:41:43;;;;;;;17.02;6.25;;;14.70;99.90;;;;;;5016199;28;20514;-78
2022/06/13 01:44:56;;;;;;;15.75;6.30;;;14.70;99.90;;;;;;4993981;28;20049;-78
2022/06/13 01:47:31;;;;;;;11.80;6.45;;;14.60;99.90;;;;;;4996491;28;20124;-78
2022/06/13 01:50:26;;;;;;;14.18;6.95;;;14.60;99.90;;;;;;5026307;28;20033;-79
2022/06/13 01:53:36;;;;;;;16.95;6.65;;;14.60;99.90;;;;;;5006225;28;20041;-79
2022/06/13 01:56:09;;;;;;;13.63;5.90;;;14.60;99.90;;;;;;5027163;28;20440;-79
2022/06/13 01:58:40;;;;;;;14.27;5.50;;;14.60;99.90;;;;;;5022418;28;20038;-79
2022/06/13 02:01:34;;;;;;;16.08;5.85;;;14.60;99.90;;;;;;5007694;28;20045;-79
2022/06/13 02:04:08;;;;;;;12.85;5.88;;;14.50;99.90;;;;;;5017909;28;20042;-79
2022/06/13 02:06:39;;;;;;;14.38;5.88;;;14.50;99.90;;;;;;5020787;28;20402;-79
2022/06/13 02:09:10;;;;;;;13.45;6.30;;;15.10;99.90;;;;;;5003709;28;20374;-79
2022/06/13 02:11:51;;;;;;;13.25;5.40;;;14.90;99.90;;;;;;4985304;28;20110;-79
2022/06/13 02:14:31;;;;;;;13.20;5.70;;;14.50;99.90;;;;;;5014170;28;20034;-79
2022/06/13 02:17:18;;;;;;;12.75;5.40;;;14.50;99.90;;;;;;5010612;28;20045;-79
2022/06/13 02:19:48;;;;;;;16.75;6.07;;;14.50;99.90;;;;;;5000666;28;20041;-80
2022/06/13 02:22:26;;;;;;;13.70;5.70;;;14.50;99.90;;;;;;4990977;28;20042;-80
2022/06/13 02:25:16;;;;;;;13.50;5.85;;;14.50;99.90;;;;;;4992959;28;20394;-79
2022/06/13 02:27:49;;;;;;;13.80;5.82;;;14.40;99.90;;;;;;4994207;28;20038;-80
2022/06/13 02:30:18;;;;;;;13.48;6.10;;;14.50;99.90;;;;;;5003927;28;20124;-80
2022/06/13 02:32:57;;;;;;;14.35;6.00;;;14.40;99.90;;;;;;4995428;28;20048;-79
2022/06/13 02:35:33;;;;;;;13.20;5.53;;;14.40;99.90;;;;;;4997336;28;20530;-79
2022/06/13 02:38:11;;;;;;;16.23;6.10;;;14.40;99.90;;;;;;5013643;28;20049;-80
2022/06/13 02:40:44;;;;;;;15.73;6.28;;;14.40;99.90;;;;;;5011275;28;20057;-79
2022/06/13 02:43:15;;;;;;;15.80;6.20;;;14.40;99.90;;;;;;5015828;28;20083;-79
2022/06/13 02:45:59;;;;;;;16.55;6.65;;;14.40;99.90;;;;;;5014124;28;20436;-79
2022/06/13 02:48:43;;;;;;;14.82;6.65;;;14.40;99.90;;;;;;5016933;28;20042;-79
2022/06/13 02:51:18;;;;;;;16.70;6.97;;;14.50;99.90;;;;;;5016415;28;20190;-79
2022/06/13 02:53:56;;;;;;;13.00;6.35;;;14.40;99.90;;;;;;5030109;28;20037;-79
2022/06/13 02:57:23;;;;;;;16.45;7.28;;;14.40;99.90;;;;;;4991860;28;20541;-79
2022/06/13 02:59:34;;;;;;;15.30;6.85;;;14.30;99.90;;;;;;5026145;28;20053;-79
2022/06/13 03:02:01;;;;;;;17.00;6.68;;;14.30;99.90;;;;;;5014021;28;20095;-79
2022/06/13 03:04:37;;;;;;;16.05;6.80;;;14.50;99.90;;;;;;5009344;28;20069;-79
2022/06/13 03:07:33;;;;;;;19.58;6.95;;;14.30;99.90;;;;;;5033027;28;20046;-79
2022/06/13 03:10:12;;;;;;;17.08;7.13;;;14.30;99.90;;;;;;5012605;28;20077;-79
2022/06/13 03:12:49;;;;;;;13.27;7.43;;;14.30;99.90;;;;;;5031237;28;20045;-79
2022/06/13 03:15:26;;;;;;;13.77;7.10;;;14.30;99.90;;;;;;4983850;28;20034;-79
2022/06/13 03:18:00;;;;;;;16.17;7.72;;;14.80;99.90;;;;;;4999235;28;20033;-79
2022/06/13 03:20:34;;;;;;;16.90;7.25;;;14.30;99.90;;;;;;5008304;28;20037;-79
2022/06/13 03:23:23;;;;;;;19.25;7.40;;;14.30;99.90;;;;;;5005853;28;20033;-79
2022/06/13 03:26:02;;;;;;;18.23;8.10;;;14.30;99.90;;;;;;4997811;28;20057;-79
2022/06/13 03:28:39;;;;;;;20.20;7.63;;;14.30;99.90;;;;;;5004081;28;20441;-79
2022/06/13 03:31:11;;;;;;;15.35;7.60;;;14.30;99.90;;;;;;4996945;28;20045;-79
2022/06/13 03:33:44;;;;;;;19.88;8.38;;;14.40;99.90;;;;;;5030964;28;20041;-79
2022/06/13 03:36:29;;;;;;;17.20;7.72;;;14.30;99.90;;;;;;5006682;28;20549;-79
2022/06/13 03:39:10;;;;;;;18.33;7.88;;;14.30;99.90;;;;;;4998214;28;20405;-79
2022/06/13 03:41:44;;;;;;;16.88;8.05;;;14.30;99.90;;;;;;5031576;28;20448;-79
2022/06/13 03:44:43;;;;;;;18.60;7.80;;;14.30;99.90;;;;;;5028550;28;20041;-79
2022/06/13 03:47:16;;;;;;;19.08;8.73;;;14.30;99.90;;;;;;4993368;28;20056;-79
2022/06/13 03:50:01;;;;;;;19.67;8.82;;;14.40;99.90;;;;;;5004997;28;20073;-79
2022/06/13 03:52:31;;;;;;;19.23;9.15;;;14.30;99.90;;;;;;5015441;28;20041;-79
2022/06/13 03:55:07;;;;;;;17.60;8.50;;;14.40;99.90;;;;;;5006213;28;20050;-79
2022/06/13 03:57:43;;;;;;;21.27;9.43;;;14.40;99.90;;;;;;5010631;28;20622;-79
2022/06/13 04:00:15;;;;;;;17.55;9.05;;;14.50;99.90;;;;;;5022616;28;20052;-79
2022/06/13 04:02:42;;;;;;;;;;;14.40;99.90;;;;;;5009519;28;20045;-79
2022/06/13 04:05:37;;;;;;;16.25;9.63;;;14.40;99.90;;;;;;5012739;28;20385;-79
2022/06/13 04:08:06;;;;;;;20.67;9.88;;;14.40;99.90;;;;;;5023933;28;20053;-79
2022/06/13 04:10:50;;;;;;;21.60;10.07;;;14.40;99.90;;;;;;5030509;28;20049;-80
2022/06/13 04:13:44;;;;;;;18.33;8.95;;;14.40;99.90;;;;;;4990916;28;20056;-80
2022/06/13 04:16:16;;;;;;;21.50;10.25;;;14.40;99.90;;;;;;5013427;28;20033;-80
2022/06/13 04:18:53;;;;;;;;;;;14.70;99.90;;;;;;4997387;28;20069;-80
2022/06/13 04:21:27;;;;;;;20.70;9.75;;;14.50;99.90;;;;;;4998133;28;20281;-79
2022/06/13 04:24:09;;;;;;;20.83;10.32;;;14.50;99.90;;;;;;4984779;28;20221;-79
2022/06/13 04:26:57;;;;;;;20.70;9.93;;;14.50;99.90;;;;;;5013277;28;20489;-79
2022/06/13 04:29:46;;;;;;;21.48;9.77;;;14.70;99.90;;;;;;5023256;28;20050;-79
2022/06/13 04:32:18;;;;;;;20.30;9.80;;;14.60;99.90;;;;;;5023091;28;20143;-79
2022/06/13 04:34:50;;;;;;;20.58;9.68;;;14.60;99.90;;;;;;5009927;28;20596;-79
2022/06/13 04:37:18;;;;;;;21.17;10.25;;;14.70;99.90;;;;;;5023914;28;20430;-79
2022/06/13 04:39:45;;;;;;;18.33;10.60;;;14.60;99.90;;;;;;5009199;28;20057;-79
2022/06/13 04:42:14;;;;;;;19.17;9.50;;;14.90;99.90;;;;;;5025794;28;20033;-79
2022/06/13 04:44:41;;;;;;;20.73;10.60;;;14.60;99.90;;;;;;5030548;28;20025;-79
2022/06/13 04:47:08;;;;;;;21.42;9.32;;;14.50;99.90;;;;;;5028866;28;20063;-79
2022/06/13 04:50:05;;;;;;;19.77;9.45;;;14.50;99.90;;;;;;4996930;28;20549;-80
2022/06/13 04:52:32;;;;;;;23.30;9.63;;;14.50;99.90;;;;;;4995075;28;20440;-79
2022/06/13 04:55:06;;;;;;;20.23;8.73;;;15.00;99.90;;;;;;5012928;28;20413;-79
2022/06/13 04:57:33;;;;;;;18.88;8.00;;;14.60;99.90;;;;;;4993523;28;20037;-79
2022/06/13 04:59:59;;;;;;;18.80;7.38;;;14.70;99.90;;;;;;5008545;28;20052;-79
2022/06/13 05:02:40;;;;;;;15.50;7.57;;;14.70;99.90;;;;;;5010674;28;20048;-79
2022/06/13 05:05:24;;;;;;;12.63;5.85;;;15.00;99.90;;;;;;5025759;28;20037;-78
2022/06/13 05:07:50;;;;;;;13.32;5.85;;;14.90;99.90;;;;;;4995772;28;20413;-78
2022/06/13 05:10:20;;;;;;;10.95;4.85;;;15.00;99.90;;;;;;4997440;28;20079;-78
2022/06/13 05:12:46;;;;;;;16.08;4.90;;;15.10;99.90;;;;;;5029119;28;20171;-77
2022/06/13 05:15:31;;;;;;;9.57;4.25;;;15.20;99.90;;;;;;4994014;28;20090;-78
2022/06/13 05:18:10;;;;;;;13.07;4.63;;;15.20;99.90;;;;;;5014639;28;20072;-79
2022/06/13 05:21:00;;;;;;;7.32;3.60;;;14.90;99.90;;;;;;5009548;28;20533;-79
2022/06/13 05:23:44;;;;;;;11.48;3.38;;;15.20;99.90;;;;;;5000792;28;20046;-78
2022/06/13 05:26:10;;;;;;;9.35;3.80;;;15.30;99.90;;;;;;5023822;28;20187;-79
2022/06/13 05:28:36;;;;;;;10.27;4.05;;;15.40;99.90;;;;;;5019110;28;20041;-79
2022/06/13 05:31:09;;;;;;;7.80;3.30;;;15.20;99.90;;;;;;5014096;28;20412;-79
2022/06/13 05:33:38;;;;;;;6.22;3.08;;;15.30;99.90;;;;;;5008826;28;20041;-79
2022/06/13 05:36:06;;;;;;;9.50;3.47;;;15.20;99.90;;;;;;5031645;28;20444;-79
2022/06/13 05:38:36;;;;;;;10.50;3.72;;;15.20;99.90;;;;;;5016583;28;20073;-79
2022/06/13 05:41:02;;;;;;;9.43;3.28;;;15.10;99.90;;;;;;4999380;28;20045;-79
2022/06/13 05:43:28;;;;;;;9.38;3.50;;;15.10;99.90;;;;;;4999234;28;20097;-79
2022/06/13 05:45:54;;;;;;;7.90;3.13;;;15.10;99.90;;;;;;5033690;28;20043;-79
2022/06/13 05:48:21;;;;;;;10.43;3.28;;;15.10;99.90;;;;;;5016107;28;20046;-79
2022/06/13 05:50:47;;;;;;;8.88;2.92;;;15.10;99.90;;;;;;5033398;28;20033;-79
2022/06/13 05:53:19;;;;;;;8.55;3.08;;;15.20;99.90;;;;;;5012497;28;20101;-79
2022/06/13 05:55:47;;;;;;;10.88;3.00;;;15.30;99.90;;;;;;5015244;28;20275;-79
2022/06/13 05:58:15;;;;;;;9.00;3.10;;;15.30;99.90;;;;;;5030686;28;20033;-78
2022/06/13 06:00:45;;;;;;;7.22;2.53;;;15.50;99.90;;;;;;5009658;28;20069;-79
2022/06/13 06:03:10;;;;;;;9.70;2.70;;;15.60;99.90;;;;;;5033721;28;20033;-79
2022/06/13 06:05:40;;;;;;;7.82;2.47;;;15.70;99.90;;;;;;4990838;28;20551;-78
2022/06/13 06:08:20;;;;;;;7.38;2.40;;;15.70;99.90;;;;;;5032758;28;20035;-79
2022/06/13 06:10:48;;;;;;;7.30;2.72;;;15.80;99.90;;;;;;5031652;28;20099;-79
2022/06/13 06:13:14;;;;;;;10.13;2.85;;;15.80;99.90;;;;;;5033666;28;20033;-79
2022/06/13 06:15:41;;;;;;;9.02;2.53;;;15.80;99.90;;;;;;5016503;28;20343;-79
2022/06/13 06:18:08;;;;;;;6.65;2.35;;;15.80;99.90;;;;;;4989847;28;20446;-78
2022/06/13 06:20:36;;;;;;;10.35;2.50;;;16.00;99.90;;;;;;5015517;28;20042;-79
2022/06/13 06:23:02;;;;;;;7.47;2.63;;;16.00;99.90;;;;;;5010736;28;20116;-79
2022/06/13 06:25:28;;;;;;;10.45;2.38;;;15.90;99.90;;;;;;4990920;28;20498;-79
2022/06/13 06:27:54;;;;;;;7.35;1.90;;;16.00;99.90;;;;;;5035251;28;20040;-79
2022/06/13 06:30:20;;;;;;;5.30;2.22;;;15.90;99.90;;;;;;5002298;28;20050;-79
2022/06/13 06:32:46;;;;;;;8.13;2.70;;;16.00;99.90;;;;;;5037157;28;20025;-79
2022/06/13 06:35:13;;;;;;;9.40;2.78;;;16.00;99.90;;;;;;5009103;28;20104;-79
2022/06/13 06:37:50;;;;;;;13.38;2.92;;;16.10;99.90;;;;;;5011898;28;20064;-79
2022/06/13 06:40:16;;;;;;;9.13;2.78;;;16.40;99.90;;;;;;5034294;28;20045;-79
2022/06/13 06:42:42;;;;;;;8.30;2.53;;;16.00;99.90;;;;;;5018378;28;20042;-79
2022/06/13 06:45:08;;;;;;;7.88;2.78;;;16.30;99.90;;;;;;5037522;28;20037;-79
2022/06/13 06:47:36;;;;;;;10.32;2.80;;;16.10;99.90;;;;;;4996264;28;20041;-79
2022/06/13 06:50:03;;;;;;;11.32;2.95;;;16.10;99.90;;;;;;5008600;28;20077;-79
2022/06/13 06:52:29;;;;;;;8.45;2.30;;;16.20;99.90;;;;;;5029022;28;20050;-79
2022/06/13 07:00:23;;;;;;;14.15;3.25;;;16.30;99.90;;;;;;5034367;28;20429;-78
2022/06/13 07:02:49;;;;;;;9.68;2.40;;;16.00;99.90;;;;;;4996661;28;20037;-78
2022/06/13 07:05:15;;;;;;;9.57;2.33;;;15.80;99.90;;;;;;5014292;28;20131;-78
2022/06/13 07:07:41;;;;;;;10.15;2.40;;;15.90;99.90;;;;;;5025085;28;20030;-77
2022/06/13 07:10:08;;;;;;;6.60;2.13;;;15.40;99.90;;;;;;5031522;28;20057;-77
2022/06/13 07:12:34;;;;;;;6.15;1.88;;;15.30;99.90;;;;;;5014553;28;20037;-77
2022/06/13 07:14:59;;;;;;;7.03;2.13;;;15.20;99.90;;;;;;5017496;28;20395;-77
2022/06/13 07:17:26;;;;;;;8.10;2.13;;;15.10;99.90;;;;;;5025635;28;20044;-77
2022/06/13 07:19:52;;;;;;;3.08;1.60;;;15.10;99.90;;;;;;5008598;28;20061;-77
2022/06/13 07:22:20;;;;;;;6.18;1.85;;;15.20;99.90;;;;;;5030642;28;20065;-77
2022/06/13 07:24:46;;;;;;;5.25;1.70;;;15.10;99.90;;;;;;4987245;28;20481;-77
2022/06/13 07:27:13;;;;;;;5.78;1.50;;;15.10;99.90;;;;;;5016218;28;20063;-78
2022/06/13 07:29:39;;;;;;;4.60;1.63;;;15.10;99.90;;;;;;4989555;28;20129;-78
2022/06/13 07:32:19;;;;;;;4.35;1.55;;;15.20;99.90;;;;;;4992844;28;20379;-78
2022/06/13 07:34:49;;;;;;;7.38;2.05;;;15.30;99.90;;;;;;5031480;28;20091;-78
2022/06/13 07:38:16;;;;;;;5.53;1.90;;;15.40;99.90;;;;;;5017227;28;20080;-78
2022/06/13 07:40:05;;;;;;;5.25;1.88;;;15.40;99.90;;;;;;5034433;28;20045;-78
2022/06/13 07:42:40;;;;;;;3.08;1.60;;;15.50;99.90;;;;;;5034756;28;20441;-78
2022/06/13 07:45:07;;;;;;;6.22;1.98;;;15.50;99.90;;;;;;5007812;28;20034;-78
2022/06/13 07:47:33;;;;;;;4.70;1.60;;;15.60;99.90;;;;;;5027615;28;20076;-77
2022/06/13 07:49:59;;;;;;;6.90;2.35;;;15.60;99.90;;;;;;4994875;28;20037;-79
2022/06/13 07:52:24;;;;;;;7.15;2.17;;;15.80;99.90;;;;;;5013198;28;20486;-78
2022/06/13 07:54:51;;;;;;;6.20;1.90;;;15.80;99.90;;;;;;4993065;28;20046;-79
2022/06/13 07:57:18;;;;;;;7.25;1.83;;;16.00;99.90;;;;;;5009631;28;20041;-78
2022/06/13 07:59:44;;;;;;;6.05;2.40;;;15.80;99.90;;;;;;5011661;28;20128;-79
2022/06/13 08:02:16;;;;;;;10.40;1.88;;;15.80;99.90;;;;;;5026230;28;20068;-79
2022/06/13 08:04:42;;;;;;;8.63;2.30;;;15.80;99.90;;;;;;5032147;28;20033;-79
2022/06/13 08:07:13;;;;;;;7.30;2.08;;;15.90;99.90;;;;;;4998100;28;20037;-79
2022/06/13 08:09:39;;;;;;;7.65;2.42;;;16.00;99.90;;;;;;5013681;28;20052;-79
2022/06/13 08:12:06;;;;;;;7.63;2.30;;;16.10;99.90;;;;;;5009756;28;20045;-79
2022/06/13 08:14:33;;;;;;;6.93;2.30;;;16.00;99.90;;;;;;5034114;28;20061;-79
2022/06/13 08:17:01;;;;;;;6.28;2.22;;;16.00;99.90;;;;;;5020506;28;20394;-78
2022/06/13 08:19:27;;;;;;;7.22;2.03;;;16.10;99.90;;;;;;5015463;28;20040;-79
2022/06/13 08:21:54;;;;;;;6.53;2.10;;;16.20;99.90;;;;;;5008594;28;20038;-78
2022/06/13 08:24:20;;;;;;;6.40;2.20;;;16.10;99.90;;;;;;4995540;28;20107;-79
2022/06/13 08:26:46;;;;;;;7.70;2.15;;;16.20;99.90;;;;;;5009656;28;20474;-78
2022/06/13 08:29:13;;;;;;;6.80;2.28;;;16.00;99.90;;;;;;4996249;28;20120;-78
2022/06/13 08:31:40;;;;;;;8.75;2.00;;;15.90;99.90;;;;;;5010893;28;20065;-78
2022/06/13 08:34:07;;;;;;;6.45;1.98;;;15.90;99.90;;;;;;4986918;28;20042;-78
2022/06/13 08:36:33;;;;;;;7.60;2.28;;;15.80;99.90;;;;;;4994657;28;20037;-78
2022/06/13 08:39:00;;;;;;;6.93;2.00;;;16.00;99.90;;;;;;4999344;28;20033;-79
2022/06/13 08:41:39;;;;;;;4.07;1.90;;;15.80;99.90;;;;;;4997070;28;20474;-79
2022/06/13 08:44:15;;;;;;;9.02;2.28;;;15.90;99.90;;;;;;4990762;28;20041;-79
2022/06/13 08:46:50;;;;;;;6.25;1.90;;;16.20;99.90;;;;;;4995414;28;20099;-79
2022/06/13 08:49:26;;;;;;;8.93;1.95;;;16.50;99.90;;;;;;5022999;28;20402;-79
2022/06/13 08:52:06;;;;;;;5.65;1.70;;;17.00;99.90;;;;;;5032326;28;20045;-79
2022/06/13 08:54:34;;;;;;;7.45;1.80;;;17.00;99.90;;;;;;5026292;28;20029;-79
2022/06/13 08:57:04;;;;;;;8.27;1.90;;;17.00;99.90;;;;;;5029127;28;20033;-79
2022/06/13 08:59:36;;;;;;;9.30;1.88;;;17.10;99.90;;;;;;5015485;28;20081;-80
2022/06/13 09:02:15;;;;;;;6.72;1.65;;;17.20;99.90;;;;;;5028042;28;20045;-80
2022/06/13 09:05:03;;;;;;;6.63;1.52;;;17.40;99.90;;;;;;5004851;28;20077;-80
2022/06/13 09:07:59;;;;;;;5.38;1.40;;;17.70;99.90;;;;;;5008373;28;20124;-77
2022/06/13 09:10:47;;;;;;;5.00;1.50;;;18.10;99.90;;;;;;4981260;28;20136;-77
2022/06/13 09:13:32;;;;;;;4.60;1.70;;;18.40;99.90;;;;;;5029361;28;20076;-77
2022/06/13 09:16:07;;;;;;;6.18;1.10;;;18.50;99.90;;;;;;4996849;28;20041;-77
2022/06/13 09:18:45;;;;;;;4.88;1.65;;;18.70;99.90;;;;;;5002333;28;20046;-77
2022/06/13 09:21:28;;;;;;;4.82;1.30;;;18.80;99.90;;;;;;4996287;28;20378;-77
2022/06/13 09:24:09;;;;;;;5.15;1.30;;;18.70;99.90;;;;;;5027717;28;20094;-77
2022/06/13 09:26:46;;;;;;;6.65;1.40;;;18.50;99.90;;;;;;5019473;28;20127;-77
2022/06/13 09:29:32;;;;;;;6.60;1.50;;;18.30;99.90;;;;;;5012329;28;20041;-76
2022/06/13 09:32:05;;;;;;;7.05;1.60;;;18.20;99.90;;;;;;5010522;28;20589;-77
2022/06/13 09:35:02;;;;;;;5.00;1.45;;;18.30;99.90;;;;;;5029235;28;20465;-77
2022/06/13 09:37:40;;;;;;;5.55;1.52;;;18.70;99.90;;;;;;4995720;28;20119;-77
2022/06/13 09:40:07;;;;;;;5.18;1.40;;;19.10;99.90;;;;;;5029652;28;20096;-76
2022/06/13 09:43:12;;;;;;;8.80;1.60;;;19.40;99.90;;;;;;4995198;28;20040;-77
2022/06/13 09:46:01;;;;;;;8.35;1.85;;;19.50;99.90;;;;;;5003972;28;20104;-77
2022/06/13 09:48:52;;;;;;;5.85;1.60;;;19.20;99.90;;;;;;5025240;28;20136;-77
2022/06/13 09:51:25;;;;;;;8.07;1.47;;;19.00;99.90;;;;;;5024170;28;20050;-77
2022/06/13 09:54:12;;;;;;;7.20;1.60;;;19.00;99.90;;;;;;5004788;28;20037;-77
2022/06/13 09:57:04;;;;;;;8.23;1.52;;;19.20;99.90;;;;;;5029089;28;20045;-77
2022/06/13 09:59:47;;;;;;;;;;;19.60;99.80;;;;;;5023808;28;20038;-77
2022/06/13 10:02:28;;;;;;;6.35;1.60;;;19.80;98.30;;;;;;5027869;28;19925;-77
2022/06/13 10:05:03;;;;;;;5.03;1.50;;;19.80;99.30;;;;;;5008950;28;20073;-80
2022/06/13 10:07:42;;;;;;;6.35;1.55;;;19.50;97.60;;;;;;5014934;28;20053;-79
2022/06/13 10:10:35;;;;;;;8.68;1.42;;;19.20;98.30;;;;;;5006534;28;20514;-80
2022/06/13 10:13:19;;;;;;;5.35;1.50;;;19.30;98.20;;;;;;5023939;28;20041;-80
2022/06/13 10:16:06;;;;;;;3.50;1.45;;;19.70;99.30;;;;;;5014720;28;20550;-80
2022/06/13 10:19:02;;;;;;;3.47;1.30;;;19.90;98.00;;;;;;5027091;28;20038;-80
2022/06/13 10:21:51;;;;;;;6.32;1.67;;;19.70;96.10;;;;;;5004040;28;20041;-80
2022/06/13 10:24:43;;;;;;;4.28;1.15;;;19.60;95.40;;;;;;5000008;28;20033;-78
2022/06/13 10:27:49;;;;;;;7.03;1.52;;;19.80;97.10;;;;;;5009609;28;20494;-78
2022/06/13 10:30:35;;;;;;;5.53;1.58;;;20.10;95.20;;;;;;4989698;28;20108;-77
2022/06/13 10:33:18;;;;;;;7.70;1.50;;;19.90;94.60;;;;;;5007254;28;20029;-78
2022/06/13 10:35:48;;;;;;;5.18;1.65;;;19.50;94.10;;;;;;5028152;28;20044;-78
2022/06/13 10:38:32;;;;;;;6.55;1.65;;;19.30;95.50;;;;;;5027397;28;20475;-77
2022/06/13 10:40:58;;;;;;;6.18;1.40;;;19.40;95.60;;;;;;5004071;28;20046;-78
2022/06/13 10:43:24;;;;;;;5.10;1.55;;;19.40;96.20;;;;;;4987459;28;20053;-75
2022/06/13 10:45:50;;;;;;;8.80;1.83;;;19.30;95.90;;;;;;5007674;28;20037;-76
2022/06/13 10:48:41;;;;;;;6.30;1.60;;;19.10;96.10;;;;;;5007058;28;20175;-77
2022/06/13 10:51:07;;;;;;;5.13;1.52;;;18.80;95.30;;;;;;4998473;28;20458;-76
2022/06/13 10:54:10;;;;;;;6.05;1.67;;;18.60;95.80;;;;;;5011531;28;20120;-78
2022/06/13 10:56:41;;;;;;;4.03;1.50;;;18.20;95.10;;;;;;5004098;28;20053;-78
2022/06/13 10:59:22;;;;;;;6.70;1.75;;;18.60;96.30;;;;;;5032137;28;20382;-76
2022/06/13 11:02:00;;;;;;;9.23;2.05;;;19.00;96.00;;;;;;4993289;28;20049;-76
2022/06/13 11:04:28;;;;;;;5.65;1.77;;;19.00;95.40;;;;;;5010607;28;20095;-76
2022/06/13 11:06:58;;;;;;;8.02;1.55;;;18.80;95.20;;;;;;5015606;28;20450;-76
2022/06/13 11:09:37;;;;;;;7.57;1.88;;;18.60;95.60;;;;;;5005120;28;20049;-76
2022/06/13 11:12:23;;;;;;;7.82;1.70;;;18.60;96.50;;;;;;5008350;28;20120;-76
2022/06/13 11:23:38;;;;;;;8.98;2.10;;;20.40;95.60;;;;;;5007195;28;20045;-77
2022/06/13 11:27:39;;;;;;;6.72;1.73;;;20.80;95.50;;;;;;5021747;28;20061;-77
2022/06/13 11:28:50;;;;;;;8.10;2.53;;;20.90;93.90;;;;;;5011853;28;20064;-78
2022/06/13 11:31:25;;;;;;;6.05;1.63;;;20.90;93.50;;;;;;4989489;28;20049;-78
2022/06/13 11:33:53;;;;;;;9.77;2.17;;;20.90;91.60;;;;;;4990276;28;20088;-78
2022/06/13 11:36:23;;;;;;;7.82;2.20;;;20.70;91.80;;;;;;5000871;28;20053;-78
2022/06/13 11:38:54;;;;;;;5.65;1.60;;;20.40;92.20;;;;;;5033055;28;20073;-78
2022/06/13 11:41:29;;;;;;;;;;;20.10;92.10;;;;;;4993667;28;20042;-78
2022/06/13 11:44:00;;;;;;;7.97;1.90;;;19.90;91.80;;;;;;5015199;28;19917;-78
2022/06/13 11:46:33;;;;;;;4.25;1.73;;;20.10;92.70;;;;;;5008204;28;20034;-78
2022/06/13 11:49:32;;;;;;;5.30;1.60;;;20.10;92.80;;;;;;4994422;28;20029;-78
2022/06/13 11:52:05;;;;;;;7.45;1.70;;;20.00;91.80;;;;;;5011178;28;20059;-77
2022/06/13 11:54:54;;;;;;;10.52;1.75;;;19.80;92.40;;;;;;5030992;28;20501;-78
2022/06/13 11:57:39;;;;;;;9.63;1.80;;;19.70;92.60;;;;;;4999809;28;20038;-78
2022/06/13 12:00:28;;;;;;;9.15;1.73;;;19.50;92.60;;;;;;4989257;28;20038;-78
2022/06/13 12:03:04;;;;;;;7.35;1.50;;;19.60;93.60;;;;;;4987040;28;20044;-77
2022/06/13 12:05:34;;;;;;;7.03;1.60;;;20.00;94.20;;;;;;4993862;28;20045;-77
2022/06/13 12:08:04;;;;;;;7.65;1.83;;;20.30;93.80;;;;;;4995194;28;20041;-77
2022/06/13 12:10:40;;;;;;;6.78;1.95;;;20.30;93.30;;;;;;5018141;28;20049;-77
2022/06/13 12:13:15;;;;;;;7.85;1.55;;;20.10;92.40;;;;;;5010591;28;20509;-77
2022/06/13 12:16:19;;;;;;;9.98;5.10;;;19.90;92.10;;;;;;4992934;28;20506;-77
2022/06/13 12:19:04;;;;;;;6.72;1.92;;;19.90;92.30;;;;;;4978311;28;20050;-77
2022/06/13 12:21:47;;;;;;;5.13;1.88;;;19.90;92.10;;;;;;4980733;28;20042;-77
2022/06/13 12:24:25;;;;;;;5.57;2.00;;;19.80;92.30;;;;;;4981961;28;20048;-77
2022/06/13 12:27:00;;;;;;;7.13;2.20;;;19.60;92.30;;;;;;5010875;28;20033;-76
2022/06/13 12:29:35;;;;;;;6.55;1.92;;;19.80;92.40;;;;;;5007315;28;20041;-78
2022/06/13 12:32:40;;;;;;;8.63;1.90;;;20.00;91.50;;;;;;4994917;28;20041;-77
2022/06/13 12:35:35;;;;;;;6.03;1.70;;;19.90;91.30;;;;;;4987915;28;20037;-76
2022/06/13 12:38:20;;;;;;;5.47;1.63;;;19.80;91.10;;;;;;5023139;28;20034;-78
2022/06/13 12:41:11;;;;;;;7.40;1.95;;;19.70;90.70;;;;;;4990046;28;20124;-79
2022/06/13 12:44:05;;;;;;;5.97;1.70;;;19.50;90.60;;;;;;5007056;28;20095;-78
2022/06/13 12:47:12;;;;;;;8.05;1.70;;;19.50;90.90;;;;;;4989834;28;20514;-78
2022/06/13 12:49:50;;;;;;;8.40;1.77;;;19.40;91.40;;;;;;4995564;28;20037;-76
2022/06/13 12:52:21;;;;;;;7.25;1.65;;;19.40;91.60;;;;;;4993190;28;20506;-77
2022/06/13 12:55:01;;;;;;;3.33;1.30;;;19.30;91.60;;;;;;5008152;28;20116;-77
2022/06/13 12:57:42;;;;;;;9.05;1.98;;;19.20;91.30;;;;;;4998017;28;20491;-77
2022/06/13 13:00:17;;;;;;;5.90;2.30;;;19.20;91.70;;;;;;5010841;28;20412;-77
2022/06/13 13:02:57;;;;;;;5.85;1.83;;;19.50;92.40;;;;;;4998017;28;20041;-77
2022/06/13 13:05:48;;;;;;;6.57;1.92;;;19.80;92.50;;;;;;4992332;28;20056;-77
2022/06/13 13:08:45;;;;;;;4.50;1.23;;;19.90;91.70;;;;;;5010259;28;20048;-78
2022/06/13 13:11:23;;;;;;;5.28;1.30;;;19.70;90.90;;;;;;5020447;28;20119;-77
2022/06/13 13:14:11;;;;;;;5.88;1.45;;;19.60;90.90;;;;;;4987783;28;20053;-77
2022/06/13 13:16:54;;;;;;;5.93;1.80;;;19.50;91.00;;;;;;5007070;28;20490;-78
2022/06/13 13:19:39;;;;;;;7.07;1.60;;;19.60;91.40;;;;;;5002985;28;20054;-78
2022/06/13 13:22:14;;;;;;;6.75;1.83;;;19.90;92.00;;;;;;5014253;28;20052;-78
2022/06/13 13:24:50;;;;;;;8.50;1.83;;;20.30;92.00;;;;;;5029683;28;20428;-78
2022/06/13 13:27:19;;;;;;;5.10;1.45;;;20.60;91.70;;;;;;4986422;28;20044;-78
2022/06/13 13:29:56;;;;;;;5.28;1.70;;;20.90;91.40;;;;;;5024248;28;20045;-78
2022/06/13 13:32:37;;;;;;;8.23;2.45;;;21.20;90.90;;;;;;4988336;28;20088;-78
2022/06/13 13:35:32;;;;;;;7.65;1.70;;;21.50;90.30;;;;;;5031231;28;20156;-79
2022/06/13 13:38:14;;;;;;;5.07;1.52;;;21.80;89.20;;;;;;5020616;28;20037;-78
2022/06/13 13:40:48;;;;;;;3.47;1.25;;;21.90;87.90;;;;;;4986485;28;20417;-79
2022/06/13 13:43:19;;;;;;;6.57;1.50;;;22.10;87.20;;;;;;4985682;28;20045;-79